Time;durP1;ratioP1;P1;durP2;ratioP2;P2;SDS_P1;SDS_P2;PMS_P1;PMS_P2;Temp;Humidity;BMP_temperature;BMP_pressure;BME280_temperature;BME280_humidity;BME280_pressure;Samples;Min_cycle;Max_cycle;Signal;HPM_P1;HPM_P2
2024/03/05 00:01:39;;;;;;;23.70;8.50;;;;;;;4.80;57.08;99568.52;79627;1303;3013119;-75
2024/03/05 00:04:06;;;;;;;21.60;9.20;;;;;;;4.83;57.00;99567.19;78337;1298;3050303;-76
2024/03/05 00:06:37;;;;;;;19.50;9.20;;;;;;;4.81;57.17;99564.48;79392;1298;3013803;-80
2024/03/05 00:09:05;;;;;;;14.80;7.70;;;;;;;4.79;57.19;99561.79;78377;1303;3053279;-78
2024/03/05 00:11:32;;;;;;;17.10;8.50;;;;;;;4.81;57.21;99553.73;79468;1302;3013714;-77
2024/03/05 00:13:59;;;;;;;25.20;9.40;;;;;;;4.82;57.21;99551.25;79509;1299;3013202;-79
2024/03/05 00:16:27;;;;;;;20.30;8.60;;;;;;;4.81;57.49;99549.58;78380;1298;3068617;-76
2024/03/05 00:18:54;;;;;;;23.90;9.40;;;;;;;4.77;57.74;99551.10;79481;1298;3013587;-80
2024/03/05 00:21:21;;;;;;;23.20;10.20;;;;;;;4.81;57.72;99548.02;79514;1298;3011974;-80
2024/03/05 00:23:49;;;;;;;26.10;9.10;;;;;;;4.82;57.76;99546.40;78328;1301;3052976;-78
2024/03/05 00:26:18;;;;;;;22.30;9.90;;;;;;;4.86;57.98;99543.15;79634;1302;3013121;-77
2024/03/05 00:28:47;;;;;;;30.60;11.80;;;;;;;4.87;57.91;99542.75;79370;1302;3011417;-76
2024/03/05 00:31:13;;;;;;;21.00;10.00;;;;;;;4.85;58.01;99539.71;79542;1297;3020348;-77
2024/03/05 00:33:40;;;;;;;21.40;10.10;;;;;;;4.88;57.94;99540.14;79467;1298;3011928;-76
2024/03/05 00:36:08;;;;;;;26.80;10.00;;;;;;;4.93;57.60;99537.17;78266;1301;3026582;-78
2024/03/05 00:38:34;;;;;;;27.10;10.20;;;;;;;4.94;57.48;99536.61;79365;1298;3013088;-78
2024/03/05 00:41:01;;;;;;;28.90;10.60;;;;;;;4.94;57.58;99539.39;79510;1300;3011389;-78
2024/03/05 00:43:29;;;;;;;22.10;9.70;;;;;;;4.92;57.71;99534.79;78433;1302;3025951;-79
2024/03/05 00:45:56;;;;;;;29.20;9.70;;;;;;;4.93;57.72;99535.45;79356;1301;3012939;-76
2024/03/05 00:48:23;;;;;;;22.90;9.40;;;;;;;4.90;57.69;99532.75;79439;1303;3011912;-76
2024/03/05 00:50:51;;;;;;;20.50;9.90;;;;;;;4.89;57.69;99533.66;78234;1298;3056886;-74
2024/03/05 00:53:18;;;;;;;23.80;9.50;;;;;;;4.87;57.85;99533.58;79265;1298;3013277;-78
2024/03/05 00:55:45;;;;;;;22.00;9.60;;;;;;;4.88;57.78;99533.35;79441;1298;3011966;-75
2024/03/05 00:58:12;;;;;;;18.00;10.10;;;;;;;4.87;57.65;99535.48;78313;1298;3026694;-78
2024/03/05 01:00:39;;;;;;;25.10;9.30;;;;;;;4.84;57.79;99541.12;79742;1298;3013868;-81
2024/03/05 01:03:05;;;;;;;17.00;9.30;;;;;;;4.86;57.86;99538.98;79468;1298;3011619;-78
2024/03/05 01:05:33;;;;;;;23.60;9.50;;;;;;;4.85;57.76;99540.23;78355;1299;3025365;-79
2024/03/05 01:08:00;;;;;;;17.90;8.30;;;;;;;4.89;57.82;99539.05;79694;1299;3012911;-79
2024/03/05 01:10:27;;;;;;;24.60;9.50;;;;;;;4.91;57.79;99542.63;79598;1298;3011496;-78
2024/03/05 01:12:56;;;;;;;24.30;9.20;;;;;;;4.88;57.79;99541.85;78324;1302;3025995;-78
2024/03/05 01:15:24;;;;;;;21.30;9.90;;;;;;;4.84;57.82;99542.86;79575;1304;3013543;-78
2024/03/05 01:17:54;;;;;;;22.20;9.10;;;;;;;4.82;57.84;99543.80;79070;1299;3013314;-79
2024/03/05 01:20:20;;;;;;;23.60;10.20;;;;;;;4.83;58.01;99545.15;79543;1298;3011549;-76
2024/03/05 01:22:47;;;;;;;30.50;10.30;;;;;;;4.83;58.04;99546.03;79351;1298;3013692;-77
2024/03/05 01:25:16;;;;;;;26.60;10.50;;;;;;;4.79;57.98;99547.37;78193;1297;3053399;-79
2024/03/05 01:27:43;;;;;;;26.60;11.00;;;;;;;4.81;58.20;99547.14;79655;1298;3013758;-79
2024/03/05 01:30:13;;;;;;;28.70;10.90;;;;;;;4.83;58.15;99547.23;79662;1297;3011400;-77
2024/03/05 01:32:43;;;;;;;27.40;10.10;;;;;;;4.84;58.25;99554.52;78408;1302;3067498;-77
2024/03/05 01:35:11;;;;;;;22.40;10.50;;;;;;;4.82;58.21;99553.16;79450;1304;3012912;-78
2024/03/05 01:37:37;;;;;;;30.70;10.50;;;;;;;4.82;58.44;99552.86;79443;1298;3011496;-78
2024/03/05 01:40:08;;;;;;;22.00;10.70;;;;;;;4.76;58.64;99550.29;78324;1299;3052779;-79
2024/03/05 01:42:35;;;;;;;21.20;10.50;;;;;;;4.72;58.86;99547.30;79653;1297;3011578;-76
2024/03/05 01:45:05;;;;;;;19.40;9.50;;;;;;;4.71;58.65;99549.60;79039;1304;3013243;-76
2024/03/05 01:47:34;;;;;;;19.80;9.10;;;;;;;4.67;58.63;99549.88;80541;1298;3012809;-74
2024/03/05 01:50:03;;;;;;;20.10;10.10;;;;;;;4.65;58.65;99552.77;78378;1298;3026977;-78
2024/03/05 01:52:30;;;;;;;22.30;9.10;;;;;;;4.60;58.89;99556.55;79470;1298;3012877;-81
2024/03/05 01:55:01;;;;;;;17.40;9.20;;;;;;;4.58;58.94;99557.66;79478;1298;3011963;-77
2024/03/05 01:57:30;;;;;;;20.30;9.40;;;;;;;4.56;58.90;99560.14;78494;1302;3053037;-81
2024/03/05 01:59:56;;;;;;;19.80;9.50;;;;;;;4.52;59.08;99561.14;79908;1304;3013324;-82
2024/03/05 02:02:23;;;;;;;21.30;9.20;;;;;;;4.54;58.94;99560.23;79790;1302;3011814;-80
2024/03/05 02:04:51;;;;;;;19.40;9.20;;;;;;;4.55;59.17;99561.95;78476;1299;3068655;-82
2024/03/05 02:07:19;;;;;;;19.30;9.70;;;;;;;4.54;58.96;99562.46;79503;1303;3013134;-78
2024/03/05 02:09:47;;;;;;;19.70;9.00;;;;;;;4.51;58.96;99561.74;79483;1298;3011815;-80
2024/03/05 02:12:15;;;;;;;27.50;9.50;;;;;;;4.50;58.96;99559.48;78360;1298;3052294;-81
2024/03/05 02:14:42;;;;;;;17.60;9.80;;;;;;;4.52;58.74;99558.04;79565;1304;3013081;-76
2024/03/05 02:17:10;;;;;;;25.70;10.20;;;;;;;4.53;58.80;99564.59;79276;1302;3011931;-78
2024/03/05 02:19:46;;;;;;;21.50;10.40;;;;;;;4.53;58.75;99563.55;78052;1298;3067956;-73
2024/03/05 02:22:13;;;;;;;20.20;9.20;;;;;;;4.54;58.68;99560.60;78256;1299;3050193;-72
2024/03/05 02:24:40;;;;;;;23.40;9.60;;;;;;;4.58;58.61;99555.06;79502;1301;3012728;-75
2024/03/05 02:27:07;;;;;;;24.30;10.60;;;;;;;4.52;58.66;99550.58;79495;1299;3013696;-78
2024/03/05 02:29:38;;;;;;;19.30;9.60;;;;;;;4.47;58.83;99546.08;78553;1298;3026207;-77
2024/03/05 02:32:07;;;;;;;21.40;9.70;;;;;;;4.43;58.88;99552.97;79533;1304;3011457;-78
2024/03/05 02:34:35;;;;;;;20.10;9.80;;;;;;;4.41;59.11;99553.22;78320;1301;3050830;-80
2024/03/05 02:37:03;;;;;;;17.50;9.40;;;;;;;4.42;59.10;99550.39;79638;1299;3013102;-78
2024/03/05 02:39:30;;;;;;;18.00;9.70;;;;;;;4.42;59.21;99553.00;79474;1299;3011530;-75
2024/03/05 02:41:58;;;;;;;23.60;10.20;;;;;;;4.40;59.17;99557.26;78143;1302;3049758;-78
2024/03/05 02:44:26;;;;;;;18.20;10.20;;;;;;;4.38;59.30;99551.23;79437;1301;3013732;-75
2024/03/05 02:46:53;;;;;;;23.00;11.00;;;;;;;4.35;59.39;99552.86;79555;1304;3011800;-80
2024/03/05 02:49:20;;;;;;;24.00;10.70;;;;;;;4.34;59.48;99549.12;78281;1298;3051620;-77
2024/03/05 02:51:47;;;;;;;26.30;10.80;;;;;;;4.31;59.62;99544.35;79488;1302;3014983;-78
2024/03/05 02:54:14;;;;;;;22.40;11.00;;;;;;;4.24;59.88;99546.52;79523;1302;3012856;-79
2024/03/05 02:56:42;;;;;;;23.20;9.50;;;;;;;4.24;59.80;99545.45;78195;1299;3026821;-76
2024/03/05 02:59:08;;;;;;;21.80;10.00;;;;;;;4.27;59.70;99536.50;79600;1305;3013702;-79
2024/03/05 03:01:35;;;;;;;23.90;11.00;;;;;;;4.24;59.70;99541.11;79543;1299;3011891;-80
2024/03/05 03:04:05;;;;;;;21.70;10.80;;;;;;;4.24;59.84;99544.42;78228;1303;3026592;-76
2024/03/05 03:06:32;;;;;;;24.00;10.80;;;;;;;4.27;59.76;99543.11;79810;1302;3012137;-77
2024/03/05 03:09:03;;;;;;;20.10;9.80;;;;;;;4.26;59.86;99538.63;79440;1301;3011796;-76
2024/03/05 03:11:29;;;;;;;22.00;10.30;;;;;;;4.22;59.93;99537.35;79488;1298;3013536;-76
2024/03/05 03:13:56;;;;;;;21.30;10.30;;;;;;;4.21;60.14;99534.46;79433;1298;3011679;-77
2024/03/05 03:16:24;;;;;;;17.20;9.80;;;;;;;4.21;60.16;99530.99;78232;1304;3051206;-78
2024/03/05 03:18:50;;;;;;;21.10;10.60;;;;;;;4.17;60.29;99537.52;79424;1304;3012984;-76
2024/03/05 03:21:17;;;;;;;28.70;11.00;;;;;;;4.13;60.29;99536.27;79411;1297;3011692;-78
2024/03/05 03:23:45;;;;;;;21.80;11.20;;;;;;;4.11;60.29;99533.42;78326;1301;3026418;-77
2024/03/05 03:26:11;;;;;;;22.90;11.80;;;;;;;4.06;60.42;99532.17;79694;1298;3013031;-76
2024/03/05 03:28:39;;;;;;;19.50;11.70;;;;;;;4.07;60.31;99534.94;79768;1301;3011455;-76
2024/03/05 03:31:10;;;;;;;24.30;11.20;;;;;;;4.05;60.11;99535.00;78585;1300;3050839;-76
2024/03/05 03:33:39;;;;;;;28.80;11.70;;;;;;;3.98;60.15;99528.79;79832;1300;3011752;-77
2024/03/05 03:36:07;;;;;;;21.40;10.60;;;;;;;3.98;60.37;99527.58;78514;1298;3050677;-75
2024/03/05 03:38:34;;;;;;;28.30;12.00;;;;;;;3.99;60.23;99525.98;79679;1300;3015937;-76
2024/03/05 03:41:00;;;;;;;27.20;11.60;;;;;;;3.87;60.45;99523.59;79533;1301;3012645;-79
2024/03/05 03:43:28;;;;;;;26.90;10.60;;;;;;;3.85;60.72;99523.50;78448;1304;3026550;-76
2024/03/05 03:45:56;;;;;;;23.80;10.80;;;;;;;3.83;60.85;99522.86;79646;1300;3013056;-78
2024/03/05 03:48:24;;;;;;;23.80;12.20;;;;;;;3.81;60.93;99519.30;79630;1300;3013848;-77
2024/03/05 03:50:52;;;;;;;22.30;11.50;;;;;;;3.83;60.74;99519.73;78340;1301;3052945;-76
2024/03/05 03:53:20;;;;;;;27.30;11.50;;;;;;;3.90;60.37;99516.94;79490;1297;3013196;-76
2024/03/05 03:55:47;;;;;;;25.50;12.20;;;;;;;3.87;60.54;99519.95;79623;1301;3011352;-79
2024/03/05 03:58:15;;;;;;;25.00;11.70;;;;;;;3.88;60.30;99516.47;78143;1300;3050756;-75
2024/03/05 04:00:44;;;;;;;27.80;12.10;;;;;;;3.86;60.48;99515.33;79546;1301;3018755;-78
2024/03/05 04:03:11;;;;;;;25.00;11.90;;;;;;;3.75;60.69;99510.29;79528;1297;3011702;-79
2024/03/05 04:05:39;;;;;;;25.60;12.50;;;;;;;3.77;60.75;99508.48;78182;1300;3051101;-79
2024/03/05 04:08:06;;;;;;;29.70;12.20;;;;;;;3.70;60.80;99510.98;79468;1301;3013356;-80
2024/03/05 04:10:32;;;;;;;25.70;12.20;;;;;;;3.67;60.84;99509.67;79553;1301;3011865;-77
2024/03/05 04:13:00;;;;;;;28.50;12.20;;;;;;;3.63;60.81;99508.42;78506;1298;3025200;-79
2024/03/05 04:15:27;;;;;;;21.10;12.10;;;;;;;3.63;61.14;99511.19;79568;1301;3018420;-78
2024/03/05 04:17:55;;;;;;;22.90;12.30;;;;;;;3.65;61.15;99509.55;79484;1301;3011947;-78
2024/03/05 04:20:23;;;;;;;28.20;12.70;;;;;;;3.67;60.88;99510.57;78266;1301;3051661;-77
2024/03/05 04:22:49;;;;;;;26.40;12.50;;;;;;;3.62;61.29;99510.19;79479;1298;3013054;-78
2024/03/05 04:25:16;;;;;;;30.70;12.20;;;;;;;3.65;60.94;99512.36;79493;1301;3013249;-76
2024/03/05 04:27:47;;;;;;;30.50;12.10;;;;;;;3.62;60.84;99510.17;79191;1301;3052104;-79
2024/03/05 04:30:14;;;;;;;30.80;12.00;;;;;;;3.62;60.93;99513.31;79523;1299;3011631;-78
2024/03/05 04:32:46;;;;;;;23.40;12.10;;;;;;;3.51;61.34;99513.27;78976;1298;3011604;-78
2024/03/05 04:35:16;;;;;;;29.00;11.50;;;;;;;3.54;61.40;99514.96;79599;1301;3011526;-77
2024/03/05 04:37:43;;;;;;;29.40;10.80;;;;;;;3.53;61.32;99517.75;78494;1301;3051784;-78
2024/03/05 04:40:10;;;;;;;25.90;12.20;;;;;;;3.52;61.26;99515.52;79509;1298;3018509;-77
2024/03/05 04:42:37;;;;;;;21.20;11.50;;;;;;;3.37;61.67;99518.39;79448;1298;3012076;-74
2024/03/05 04:45:07;;;;;;;25.50;11.60;;;;;;;3.39;61.85;99518.33;78197;1300;3028844;-77
2024/03/05 04:47:36;;;;;;;20.70;10.50;;;;;;;3.39;61.91;99518.17;79588;1301;3011979;-77
2024/03/05 04:50:05;;;;;;;31.30;11.70;;;;;;;3.35;61.89;99519.33;78245;1309;3028330;-78
2024/03/05 04:52:33;;;;;;;28.20;11.60;;;;;;;3.35;62.13;99520.69;79652;1300;3012821;-78
2024/03/05 04:55:00;;;;;;;21.80;11.40;;;;;;;3.40;62.00;99521.41;79345;1298;3011513;-78
2024/03/05 04:57:27;;;;;;;18.00;10.50;;;;;;;3.44;61.91;99523.90;78572;1300;3052282;-79
2024/03/05 04:59:54;;;;;;;23.40;11.80;;;;;;;3.45;61.68;99522.50;79485;1301;3013901;-76
2024/03/05 05:02:21;;;;;;;23.30;12.00;;;;;;;3.47;61.73;99522.92;79623;1299;3011612;-79
2024/03/05 05:04:49;;;;;;;29.10;12.80;;;;;;;3.52;61.37;99517.25;78237;1301;3049533;-78
2024/03/05 05:07:21;;;;;;;22.60;11.50;;;;;;;3.53;61.17;99517.55;79620;1301;3013644;-77
2024/03/05 05:09:50;;;;;;;25.30;12.00;;;;;;;3.55;61.24;99516.30;78276;1297;3070208;-79
2024/03/05 05:12:17;;;;;;;26.70;11.60;;;;;;;3.53;61.20;99519.13;79461;1299;3011640;-80
2024/03/05 05:14:44;;;;;;;24.20;12.70;;;;;;;3.51;61.43;99517.08;79756;1297;3013445;-81
2024/03/05 05:17:14;;;;;;;25.80;12.10;;;;;;;3.57;61.39;99518.84;78700;1298;3054177;-80
2024/03/05 05:19:41;;;;;;;26.80;12.40;;;;;;;3.56;61.26;99516.80;79701;1300;3013449;-80
2024/03/05 05:22:07;;;;;;;24.20;11.50;;;;;;;3.56;61.24;99518.35;79399;1301;3011679;-81
2024/03/05 05:24:36;;;;;;;22.60;10.80;;;;;;;3.62;61.18;99519.38;78300;1299;3069130;-80
2024/03/05 05:27:03;;;;;;;21.00;10.90;;;;;;;3.63;60.97;99518.46;79422;1297;3013240;-77
2024/03/05 05:29:30;;;;;;;29.70;11.20;;;;;;;3.69;60.87;99517.77;79718;1298;3011641;-77
2024/03/05 05:31:59;;;;;;;25.60;11.40;;;;;;;3.71;60.90;99519.77;78353;1298;3051563;-77
2024/03/05 05:34:26;;;;;;;25.60;11.30;;;;;;;3.75;60.88;99527.27;79809;1300;3013204;-81
2024/03/05 05:36:52;;;;;;;23.50;11.80;;;;;;;3.75;60.63;99526.23;79604;1304;3011621;-78
2024/03/05 05:39:24;;;;;;;25.10;11.40;;;;;;;3.74;60.62;99525.05;78114;1300;3067464;-79
2024/03/05 05:41:54;;;;;;;25.10;11.70;;;;;;;3.78;60.57;99523.89;79606;1299;3011653;-80
2024/03/05 05:44:22;;;;;;;23.80;11.60;;;;;;;3.80;60.40;99521.04;78404;1301;3055366;-80
2024/03/05 05:46:48;;;;;;;25.90;11.80;;;;;;;3.75;60.39;99516.35;80134;1298;3012888;-77
2024/03/05 05:49:19;;;;;;;21.10;11.00;;;;;;;3.84;60.43;99520.57;79719;1302;3011895;-79
2024/03/05 05:51:47;;;;;;;22.80;11.30;;;;;;;3.92;60.05;99526.55;78225;1298;3052051;-77
2024/03/05 05:54:16;;;;;;;20.80;11.30;;;;;;;3.98;60.05;99525.66;79530;1301;3013071;-78
2024/03/05 05:56:43;;;;;;;21.40;10.80;;;;;;;4.02;59.75;99530.20;79730;1299;3012942;-79
2024/03/05 05:59:13;;;;;;;26.40;11.10;;;;;;;4.08;59.63;99530.89;78404;1299;3057688;-80
2024/03/05 06:01:41;;;;;;;26.90;11.20;;;;;;;4.05;59.70;99533.96;79581;1299;3011388;-80
2024/03/05 06:04:11;;;;;;;21.90;11.20;;;;;;;4.09;59.48;99528.25;79947;1299;3025885;-78
2024/03/05 06:06:38;;;;;;;23.10;11.40;;;;;;;4.13;59.39;99528.48;79834;1299;3011523;-80
2024/03/05 06:09:10;;;;;;;31.40;11.90;;;;;;;4.19;59.46;99524.29;80013;1301;3011413;-79
2024/03/05 06:12:05;;;;;;;30.30;12.60;;;;;;;4.29;59.31;99518.22;81134;1292;3012710;-81
2024/03/05 06:14:32;;;;;;;24.40;11.40;;;;;;;4.34;58.95;99518.92;79747;1297;3013113;-79
2024/03/05 06:16:58;;;;;;;23.10;11.70;;;;;;;4.38;58.83;99516.73;80022;1297;3011446;-80
2024/03/05 06:19:26;;;;;;;23.50;12.20;;;;;;;4.47;58.58;99513.48;78912;1297;3028435;-78
2024/03/05 06:21:53;;;;;;;24.40;11.70;;;;;;;4.52;58.25;99514.16;79975;1295;3012804;-78
2024/03/05 06:24:19;;;;;;;31.80;11.80;;;;;;;4.57;58.10;99515.20;79887;1298;3012985;-79
2024/03/05 06:26:48;;;;;;;32.60;12.70;;;;;;;4.67;57.67;99509.29;78573;1293;3026131;-77
2024/03/05 06:29:16;;;;;;;23.80;12.80;;;;;;;4.69;57.45;99506.95;79974;1296;3013303;-79
2024/03/05 06:31:43;;;;;;;27.00;11.80;;;;;;;4.70;57.50;99502.05;79812;1297;3011910;-79
2024/03/05 06:34:11;;;;;;;33.00;11.40;;;;;;;4.77;57.35;99503.73;78882;1297;3052318;-78
2024/03/05 06:36:39;;;;;;;29.90;12.10;;;;;;;4.77;57.09;99508.08;80237;1292;3013485;-80
2024/03/05 06:39:18;;;;;;;25.30;11.20;;;;;;;4.86;57.06;99510.35;80152;1292;3012715;-82
2024/03/05 06:41:56;;;;;;;23.30;11.10;;;;;;;4.90;56.95;99507.95;79165;1292;3048375;-75
2024/03/05 06:44:25;;;;;;;25.30;12.00;;;;;;;4.95;56.67;99506.89;78717;1292;3053175;-79
2024/03/05 06:46:52;;;;;;;24.80;12.30;;;;;;;5.04;56.49;99507.08;79965;1295;3011925;-79
2024/03/05 06:49:27;;;;;;;36.50;13.40;;;;;;;5.11;55.97;99506.48;80120;1291;3011910;-79
2024/03/05 06:56:39;;;;;;;33.90;13.40;;;;;;;5.21;55.91;99500.39;78813;1294;3068455;-80
2024/03/05 06:57:32;;;;;;;35.50;12.80;;;;;;;5.39;55.25;99497.96;78822;1294;3055536;-79
2024/03/05 06:59:59;;;;;;;24.70;11.50;;;;;;;5.33;55.42;99495.57;80156;1292;3013614;-82
2024/03/05 07:02:30;;;;;;;31.10;12.10;;;;;;;5.42;55.36;99490.91;80076;1292;3011426;-81
2024/03/05 07:04:58;;;;;;;34.70;12.90;;;;;;;5.48;55.08;99492.22;79003;1298;3051025;-79
2024/03/05 07:07:25;;;;;;;31.90;11.70;;;;;;;5.65;54.92;99497.98;80664;1294;3018883;-73
2024/03/05 07:09:53;;;;;;;29.00;11.80;;;;;;;5.75;54.58;99494.09;80224;1292;3011748;-77
2024/03/05 07:12:21;;;;;;;28.90;11.30;;;;;;;5.76;54.34;99495.13;78603;1295;3055802;-77
2024/03/05 07:14:48;;;;;;;28.40;12.50;;;;;;;5.87;54.10;99493.29;79591;1296;3013361;-80
2024/03/05 07:17:14;;;;;;;36.10;13.20;;;;;;;5.85;53.92;99488.66;80009;1292;3013526;-75
2024/03/05 07:19:42;;;;;;;35.20;12.20;;;;;;;5.93;53.55;99488.52;78701;1297;3026542;-77
2024/03/05 07:22:11;;;;;;;34.20;12.60;;;;;;;5.96;53.69;99490.14;80261;1292;3013544;-78
2024/03/05 07:24:40;;;;;;;24.50;11.20;;;;;;;5.99;53.65;99489.33;79322;1292;3013452;-76
2024/03/05 07:27:07;;;;;;;25.10;10.70;;;;;;;5.99;53.58;99488.27;79908;1296;3015445;-75
2024/03/05 07:29:34;;;;;;;25.90;11.10;;;;;;;6.11;53.25;99486.60;79878;1297;3012849;-76
2024/03/05 07:32:02;;;;;;;28.60;11.50;;;;;;;6.19;53.29;99483.13;78620;1294;3051908;-77
2024/03/05 07:34:29;;;;;;;29.20;10.90;;;;;;;6.28;52.88;99482.39;79898;1294;3013050;-78
2024/03/05 07:36:57;;;;;;;22.20;10.20;;;;;;;6.37;52.79;99476.77;79857;1297;3011710;-79
2024/03/05 07:39:25;;;;;;;25.40;10.60;;;;;;;6.38;52.65;99477.98;78774;1298;3069457;-78
2024/03/05 07:41:52;;;;;;;22.70;9.90;;;;;;;6.39;52.64;99476.38;80108;1293;3013200;-81
2024/03/05 07:44:21;;;;;;;19.80;9.30;;;;;;;6.41;52.50;99476.98;80040;1296;3011440;-78
2024/03/05 07:46:49;;;;;;;19.10;9.30;;;;;;;6.49;52.20;99471.58;78814;1292;3052325;-80
2024/03/05 07:49:15;;;;;;;19.90;9.00;;;;;;;6.64;51.95;99477.72;80180;1297;3013086;-80
2024/03/05 07:51:42;;;;;;;21.40;9.50;;;;;;;6.72;51.45;99474.93;79909;1292;3011755;-80
2024/03/05 07:54:11;;;;;;;19.20;8.80;;;;;;;6.73;51.49;99469.50;78529;1292;3026667;-80
2024/03/05 07:56:37;;;;;;;24.70;9.80;;;;;;;6.69;51.47;99464.25;80176;1292;3013110;-79
2024/03/05 07:59:05;;;;;;;18.80;9.60;;;;;;;6.68;51.58;99464.48;80166;1292;3011605;-79
2024/03/05 08:01:33;;;;;;;22.70;9.40;;;;;;;6.75;51.29;99467.99;78896;1292;3053603;-80
2024/03/05 08:04:00;;;;;;;23.40;9.50;;;;;;;6.97;51.22;99463.38;80167;1298;3013054;-80
2024/03/05 08:06:27;;;;;;;16.40;8.80;;;;;;;6.99;50.95;99462.92;80322;1295;3012053;-80
2024/03/05 08:08:55;;;;;;;23.10;9.50;;;;;;;7.06;50.84;99457.55;79015;1292;3070086;-78
2024/03/05 08:11:23;;;;;;;20.20;8.50;;;;;;;7.25;50.50;99459.10;80113;1291;3013479;-77
2024/03/05 08:13:49;;;;;;;18.10;8.40;;;;;;;7.32;50.08;99463.65;80056;1292;3013124;-75
2024/03/05 08:16:17;;;;;;;20.00;8.30;;;;;;;7.36;50.27;99457.55;78889;1292;3052673;-77
2024/03/05 08:18:44;;;;;;;26.80;8.70;;;;;;;7.49;50.07;99457.08;80050;1291;3018943;-80
2024/03/05 08:21:11;;;;;;;25.90;9.30;;;;;;;7.48;49.86;99453.85;80121;1292;3011789;-79
2024/03/05 08:23:38;;;;;;;16.80;8.40;;;;;;;7.50;49.88;99452.49;78840;1292;3026278;-77
2024/03/05 08:26:05;;;;;;;17.50;8.20;;;;;;;7.61;49.70;99454.25;80228;1292;3012669;-80
2024/03/05 08:28:32;;;;;;;23.90;8.70;;;;;;;7.67;49.79;99454.81;81023;1291;3011753;-80
2024/03/05 08:31:00;;;;;;;15.30;7.50;;;;;;;7.68;49.72;99451.98;78695;1291;3027704;-75
2024/03/05 08:33:28;;;;;;;17.70;8.90;;;;;;;7.74;49.68;99447.52;80172;1292;3014860;-76
2024/03/05 08:35:54;;;;;;;21.10;8.60;;;;;;;7.85;49.61;99446.79;79950;1295;3011756;-78
2024/03/05 08:38:22;;;;;;;18.10;7.50;;;;;;;7.95;49.48;99445.79;79031;1292;3068589;-77
2024/03/05 08:40:52;;;;;;;24.20;8.50;;;;;;;8.08;48.97;99443.77;80302;1292;3013465;-76
2024/03/05 08:43:18;;;;;;;19.50;8.70;;;;;;;8.13;48.88;99444.36;79951;1292;3013118;-78
2024/03/05 08:45:46;;;;;;;16.20;8.70;;;;;;;8.23;48.83;99443.15;78687;1292;3053383;-78
2024/03/05 08:48:13;;;;;;;20.00;8.40;;;;;;;8.39;48.55;99440.39;80132;1291;3012776;-79
2024/03/05 08:50:40;;;;;;;20.10;7.50;;;;;;;8.57;48.58;99438.81;79974;1295;3012895;-78
2024/03/05 08:53:09;;;;;;;21.70;8.00;;;;;;;8.64;47.89;99433.74;78905;1292;3026397;-79
2024/03/05 08:55:36;;;;;;;17.60;8.30;;;;;;;8.71;47.76;99433.14;79826;1293;3013902;-78
2024/03/05 08:58:03;;;;;;;15.50;7.50;;;;;;;8.86;47.63;99430.99;79828;1292;3011860;-78
2024/03/05 09:00:33;;;;;;;19.50;8.70;;;;;;;9.01;47.21;99427.38;78877;1292;3054128;-79
2024/03/05 09:03:01;;;;;;;19.70;7.70;;;;;;;9.07;47.16;99424.27;80018;1292;3011578;-78
2024/03/05 09:05:32;;;;;;;19.10;8.70;;;;;;;9.23;47.13;99427.02;79485;1295;3011529;-79
2024/03/05 09:07:58;;;;;;;20.30;8.00;;;;;;;9.47;46.56;99423.77;80134;1295;3011577;-78
2024/03/05 09:10:25;;;;;;;18.10;8.30;;;;;;;9.44;46.30;99423.77;79872;1294;3011535;-75
2024/03/05 09:12:53;;;;;;;17.10;7.50;;;;;;;9.54;46.47;99417.81;78586;1292;3056190;-78
2024/03/05 09:15:20;;;;;;;18.90;7.80;;;;;;;9.62;46.10;99415.44;79934;1291;3013257;-79
2024/03/05 09:17:47;;;;;;;18.30;6.70;;;;;;;9.52;46.23;99415.46;79863;1291;3013416;-78
2024/03/05 09:20:15;;;;;;;17.50;6.90;;;;;;;9.68;46.16;99408.95;78831;1297;3052498;-76
2024/03/05 09:22:45;;;;;;;17.30;7.30;;;;;;;9.81;45.68;99402.23;80288;1292;3013595;-77
2024/03/05 09:25:14;;;;;;;17.10;8.10;;;;;;;9.90;45.42;99403.65;78652;1291;3049948;-79
2024/03/05 09:27:42;;;;;;;25.50;7.70;;;;;;;9.99;45.61;99406.84;80242;1292;3012997;-78
2024/03/05 09:30:09;;;;;;;21.70;7.20;;;;;;;10.03;45.34;99404.13;79876;1291;3011611;-78
2024/03/05 09:32:37;;;;;;;18.30;6.60;;;;;;;10.26;45.35;99402.38;78528;1292;3050016;-77
2024/03/05 09:35:08;;;;;;;19.60;7.40;;;;;;;10.34;44.61;99397.38;80053;1297;3012857;-77
2024/03/05 09:37:37;;;;;;;20.30;7.10;;;;;;;10.35;44.56;99402.41;78726;1295;3069144;-81
2024/03/05 09:40:06;;;;;;;25.80;7.80;;;;;;;10.31;44.61;99394.77;80135;1291;3013376;-83
2024/03/05 09:42:36;;;;;;;15.40;6.60;;;;;;;10.41;44.57;99393.80;79547;1292;3011640;-78
2024/03/05 09:45:06;;;;;;;19.90;8.30;;;;;;;10.59;44.36;99394.45;80204;1292;3012872;-79
2024/03/05 09:47:37;;;;;;;23.10;6.90;;;;;;;10.80;43.72;99389.84;79336;1292;3050427;-79
2024/03/05 09:50:04;;;;;;;17.50;7.10;;;;;;;10.73;43.70;99387.48;80194;1292;3013685;-79
2024/03/05 09:52:31;;;;;;;17.90;7.60;;;;;;;10.72;43.79;99384.36;79961;1297;3012005;-79
2024/03/05 09:55:00;;;;;;;16.80;7.30;;;;;;;10.78;43.72;99382.27;78651;1292;3049695;-80
2024/03/05 09:57:28;;;;;;;29.30;7.80;;;;;;;10.75;43.52;99382.29;80117;1291;3013317;-79
2024/03/05 09:59:57;;;;;;;34.30;7.40;;;;;;;10.78;43.65;99382.08;79545;1291;3013008;-80
2024/03/05 10:02:26;;;;;;;16.10;7.20;;;;;;;10.84;43.43;99382.05;80041;1295;3012795;-81
2024/03/05 10:04:54;;;;;;;27.50;7.50;;;;;;;10.83;43.47;99380.55;80173;1295;3011662;-80
2024/03/05 10:07:25;;;;;;;27.80;7.60;;;;;;;10.92;43.29;99373.88;78762;1292;3053037;-75
2024/03/05 10:10:07;;;;;;;19.80;7.40;;;;;;;11.04;43.17;99373.96;79981;1294;3013532;-78
2024/03/05 10:12:38;;;;;;;24.80;7.00;;;;;;;11.15;42.82;99369.23;78926;1291;3050947;-77
2024/03/05 10:15:17;;;;;;;18.50;6.70;;;;;;;11.16;42.56;99369.52;80239;1291;3011829;-79
2024/03/05 10:17:49;;;;;;;24.50;7.80;;;;;;;11.15;42.70;99363.42;78885;1291;3049198;-75
2024/03/05 10:20:26;;;;;;;33.70;7.70;;;;;;;11.15;42.88;99361.86;79983;1292;3011628;-78
2024/03/05 10:22:56;;;;;;;20.90;7.30;;;;;;;11.28;42.76;99356.86;79154;1293;3049136;-76
2024/03/05 10:25:24;;;;;;;22.50;7.30;;;;;;;11.39;42.48;99346.98;80016;1295;3013025;-78
2024/03/05 10:27:54;;;;;;;20.40;7.40;;;;;;;11.38;42.46;99343.70;79910;1291;3013744;-76
2024/03/05 10:30:25;;;;;;;27.50;7.40;;;;;;;11.46;42.25;99349.86;80442;1295;3013186;-78
2024/03/05 10:32:56;;;;;;;31.00;8.80;;;;;;;11.36;42.23;99346.82;79530;1292;3057098;-78
2024/03/05 10:35:23;;;;;;;18.80;6.70;;;;;;;11.28;42.57;99342.80;80601;1291;3011635;-76
2024/03/05 10:38:18;;;;;;;24.80;6.10;;;;;;;11.39;42.44;99339.06;79070;1295;3027106;-78
2024/03/05 10:40:47;;;;;;;23.40;6.50;;;;;;;11.38;42.12;99331.80;79164;1291;3051396;-74
2024/03/05 10:43:18;;;;;;;27.80;6.10;;;;;;;11.39;42.23;99326.80;80048;1294;3013251;-76
2024/03/05 10:45:46;;;;;;;21.10;6.50;;;;;;;11.37;42.33;99324.15;78739;1298;3068030;-78
2024/03/05 10:48:14;;;;;;;21.60;5.50;;;;;;;11.29;42.29;99320.63;80131;1300;3018309;-78
2024/03/05 10:50:41;;;;;;;17.90;5.90;;;;;;;11.22;42.50;99321.65;80149;1291;3011572;-78
2024/03/05 10:53:09;;;;;;;29.20;6.40;;;;;;;11.12;42.69;99315.44;79088;1292;3052888;-80
2024/03/05 10:55:38;;;;;;;25.30;6.70;;;;;;;11.01;42.79;99317.15;80197;1297;3014067;-76
2024/03/05 11:00:42;;;;;;;15.60;6.40;;;;;;;10.84;43.07;99319.52;80108;1292;3011499;-78
2024/03/05 11:03:14;;;;;;;27.00;6.70;;;;;;;10.92;43.22;99318.46;78892;1295;3069079;-74
2024/03/05 11:05:51;;;;;;;15.80;5.90;;;;;;;10.99;43.15;99313.87;80257;1292;3011641;-75
2024/03/05 11:08:19;;;;;;;24.00;6.70;;;;;;;10.95;43.06;99307.58;78844;1295;3058604;-77
2024/03/05 11:10:50;;;;;;;15.70;6.60;;;;;;;10.94;43.16;99308.38;80277;1291;3013189;-75
2024/03/05 11:13:17;;;;;;;16.60;6.80;;;;;;;10.93;43.06;99311.42;78797;1292;3048455;-75
2024/03/05 11:15:44;;;;;;;18.60;6.40;;;;;;;10.92;42.98;99304.45;80017;1291;3013672;-77
2024/03/05 11:18:27;;;;;;;20.30;5.70;;;;;;;10.97;42.98;99299.55;79940;1297;3011586;-75
2024/03/05 11:20:55;;;;;;;17.20;5.90;;;;;;;11.00;42.80;99296.61;78660;1291;3050818;-75
2024/03/05 11:23:26;;;;;;;26.00;6.20;;;;;;;11.01;42.86;99300.58;80431;1291;3013656;-77